Time;durP1;ratioP1;P1;durP2;ratioP2;P2;SDS_P1;SDS_P2;PMS_P1;PMS_P2;Temp;Humidity;BMP_temperature;BMP_pressure;BME280_temperature;BME280_humidity;BME280_pressure;Samples;Min_cycle;Max_cycle;Signal;HPM_P1;HPM_P2
2023/11/28 00:01:16;;;;;;;6.55;4.70;;;3.20;99.90;;;;;;6220714;23;20027;-88
2023/11/28 00:03:48;;;;;;;9.40;6.35;;;3.20;99.90;;;;;;6197150;23;20016;-88
2023/11/28 00:06:17;;;;;;;8.07;5.78;;;3.20;99.90;;;;;;6196501;23;20016;-87
2023/11/28 00:08:54;;;;;;;11.50;8.05;;;3.20;99.90;;;;;;6195180;23;20020;-85
2023/11/28 00:11:24;;;;;;;10.40;7.05;;;3.10;99.90;;;;;;6196340;23;20024;-85
2023/11/28 00:13:54;;;;;;;9.55;6.53;;;3.10;99.90;;;;;;6172299;23;20047;-86
2023/11/28 00:16:26;;;;;;;11.00;7.50;;;3.10;99.90;;;;;;6196514;23;20026;-86
2023/11/28 00:18:58;;;;;;;10.23;6.85;;;3.10;99.90;;;;;;6183830;23;20029;-86
2023/11/28 00:21:25;;;;;;;11.15;7.68;;;3.10;99.90;;;;;;6192073;23;20044;-86
2023/11/28 00:24:03;;;;;;;11.13;7.75;;;3.10;99.90;;;;;;6196063;23;20020;-86
2023/11/28 00:26:36;;;;;;;;;;;3.10;99.90;;;;;;6221404;23;20020;-86
2023/11/28 00:29:31;;;;;;;;;;;;;;;;;;;;;
2023/11/28 00:32:06;;;;;;;9.48;6.43;;;3.00;99.90;;;;;;6204459;23;20016;-87
2023/11/28 00:35:03;;;;;;;9.73;5.93;;;3.00;99.90;;;;;;6228901;23;20115;-87
2023/11/28 00:37:49;;;;;;;8.98;6.28;;;3.00;99.90;;;;;;6222281;23;20020;-87
2023/11/28 00:40:39;;;;;;;;;;;3.00;99.90;;;;;;6147792;23;20021;-88
2023/11/28 00:43:11;;;;;;;9.55;6.03;;;3.00;99.90;;;;;;6166428;23;19924;-89
2023/11/28 00:45:49;;;;;;;8.70;5.63;;;3.00;99.90;;;;;;6193503;23;20506;-90
2023/11/28 00:48:25;;;;;;;8.27;5.43;;;2.90;99.90;;;;;;6168275;23;20339;-89
2023/11/28 00:50:55;;;;;;;8.52;5.72;;;3.00;99.90;;;;;;6166346;23;20017;-89
2023/11/28 00:53:29;;;;;;;9.27;5.47;;;3.00;99.90;;;;;;6147635;23;20068;-89
2023/11/28 00:56:05;;;;;;;7.78;5.47;;;2.90;99.90;;;;;;6136811;23;20064;-89
2023/11/28 00:58:36;;;;;;;6.55;4.28;;;2.90;99.90;;;;;;6137133;23;20480;-88
2023/11/28 01:01:06;;;;;;;6.95;4.57;;;3.00;99.90;;;;;;6137105;23;20021;-88
2023/11/28 01:03:43;;;;;;;7.60;5.07;;;3.00;99.90;;;;;;6136700;23;20064;-89
2023/11/28 01:06:22;;;;;;;7.90;5.35;;;2.90;99.90;;;;;;6160996;23;20021;-89
2023/11/28 01:09:25;;;;;;;6.40;4.35;;;2.90;99.90;;;;;;6160579;23;20023;-89
2023/11/28 01:11:57;;;;;;;7.38;4.63;;;2.90;99.90;;;;;;6136718;23;20073;-89
2023/11/28 01:14:28;;;;;;;7.78;5.28;;;2.90;99.90;;;;;;6136037;23;20021;-89
2023/11/28 01:16:59;;;;;;;8.25;5.20;;;2.90;99.90;;;;;;6135835;23;20025;-86
2023/11/28 01:19:27;;;;;;;7.18;5.13;;;2.90;99.90;;;;;;6135507;23;20017;-86
2023/11/28 01:22:21;;;;;;;8.55;5.38;;;2.80;99.90;;;;;;6137032;23;20024;-87
2023/11/28 01:24:58;;;;;;;7.63;5.28;;;2.80;99.90;;;;;;6137626;23;20017;-89
2023/11/28 01:27:35;;;;;;;7.53;4.72;;;2.80;99.90;;;;;;6136508;23;20021;-89
2023/11/28 01:30:09;;;;;;;8.10;5.22;;;2.80;99.90;;;;;;6137234;23;20031;-88
2023/11/28 01:32:41;;;;;;;7.85;5.45;;;2.80;99.90;;;;;;6136280;23;20384;-86
2023/11/28 01:35:22;;;;;;;8.30;5.40;;;2.80;99.90;;;;;;6160223;23;20035;-86
2023/11/28 01:38:05;;;;;;;8.10;5.35;;;2.80;99.90;;;;;;6137595;23;20013;-86
2023/11/28 01:40:47;;;;;;;7.63;4.45;;;2.70;99.90;;;;;;6137388;23;20029;-87
2023/11/28 01:43:26;;;;;;;5.65;3.90;;;2.80;99.90;;;;;;6162032;23;20017;-86
2023/11/28 01:46:01;;;;;;;7.28;5.15;;;2.80;99.90;;;;;;6137229;23;20013;-87
2023/11/28 01:48:41;;;;;;;8.88;5.70;;;2.80;99.90;;;;;;6162813;23;20091;-87
2023/11/28 01:51:19;;;;;;;;;;;;;;;;;;;;;
2023/11/28 01:54:19;;;;;;;7.80;4.60;;;2.70;99.90;;;;;;6212079;23;20103;-86
2023/11/28 01:56:54;;;;;;;6.40;3.85;;;2.70;99.90;;;;;;6167756;23;20051;-87
2023/11/28 01:59:34;;;;;;;8.57;4.45;;;2.70;99.90;;;;;;6169091;23;20447;-86
2023/11/28 02:02:14;;;;;;;7.75;4.47;;;2.70;99.90;;;;;;6168943;23;20013;-86
2023/11/28 02:04:45;;;;;;;5.82;3.83;;;2.70;99.90;;;;;;6168105;23;20017;-86
2023/11/28 02:07:14;;;;;;;7.05;4.78;;;2.70;99.90;;;;;;6191723;23;20016;-87
2023/11/28 02:09:48;;;;;;;7.68;4.18;;;2.70;99.90;;;;;;6168677;23;20071;-87
2023/11/28 02:12:22;;;;;;;7.75;5.15;;;2.70;99.90;;;;;;6168190;23;20028;-87
2023/11/28 02:15:01;;;;;;;6.82;4.68;;;2.70;99.90;;;;;;6168303;23;20024;-87
2023/11/28 02:17:29;;;;;;;9.27;5.07;;;2.60;99.90;;;;;;6143772;23;20028;-85
2023/11/28 02:19:59;;;;;;;8.17;4.97;;;2.60;99.90;;;;;;6168020;23;20032;-86
2023/11/28 02:22:27;;;;;;;7.40;5.07;;;2.60;99.90;;;;;;6192499;23;20039;-85
2023/11/28 02:25:06;;;;;;;8.63;5.40;;;2.60;99.90;;;;;;6173546;23;20020;-85
2023/11/28 02:27:44;;;;;;;9.95;6.68;;;2.60;99.90;;;;;;6191574;23;20010;-85
2023/11/28 02:30:14;;;;;;;7.72;5.72;;;2.60;99.90;;;;;;6171503;23;20024;-86
2023/11/28 02:33:00;;;;;;;8.50;5.45;;;2.60;99.90;;;;;;6171494;23;20070;-85
2023/11/28 02:35:33;;;;;;;8.63;5.90;;;2.60;99.90;;;;;;6170052;23;20451;-84
2023/11/28 02:38:14;;;;;;;8.45;6.20;;;2.60;99.90;;;;;;6166553;23;20089;-85
2023/11/28 02:40:55;;;;;;;8.63;5.55;;;2.60;99.90;;;;;;6144364;23;20020;-86
2023/11/28 02:43:36;;;;;;;;;;;2.60;99.90;;;;;;6172570;23;20091;-86
2023/11/28 02:46:04;;;;;;;8.30;5.55;;;2.60;99.90;;;;;;6166743;23;19947;-86
2023/11/28 02:48:39;;;;;;;8.30;6.05;;;2.60;99.90;;;;;;6189928;23;20418;-86
2023/11/28 02:51:19;;;;;;;10.48;6.22;;;2.60;99.90;;;;;;6167063;23;20099;-86
2023/11/28 02:53:50;;;;;;;10.35;6.22;;;2.50;99.90;;;;;;6161197;23;20336;-86
2023/11/28 02:56:22;;;;;;;7.72;5.22;;;2.60;99.90;;;;;;6188658;23;20104;-87
2023/11/28 02:59:12;;;;;;;9.43;5.97;;;2.60;99.90;;;;;;6170477;23;20025;-87
2023/11/28 03:01:53;;;;;;;8.43;5.60;;;2.60;99.90;;;;;;6191090;23;20020;-87
2023/11/28 03:04:22;;;;;;;11.43;6.80;;;2.60;99.90;;;;;;6143295;23;20020;-86
2023/11/28 03:06:55;;;;;;;10.82;7.57;;;2.60;99.90;;;;;;6166221;23;20016;-86
2023/11/28 03:09:25;;;;;;;12.55;8.75;;;2.60;99.90;;;;;;6166698;23;20012;-86
2023/11/28 03:12:03;;;;;;;10.88;7.13;;;2.60;99.90;;;;;;6169412;23;20020;-86
2023/11/28 03:14:34;;;;;;;9.55;7.05;;;2.60;99.90;;;;;;6187165;23;20356;-86
2023/11/28 03:17:01;;;;;;;11.38;6.88;;;2.50;99.90;;;;;;6186080;23;20024;-86
2023/11/28 03:19:29;;;;;;;9.65;6.40;;;2.50;99.90;;;;;;6165719;23;20023;-86
2023/11/28 03:21:56;;;;;;;9.18;6.55;;;2.50;99.90;;;;;;6165860;23;20040;-87
2023/11/28 03:24:24;;;;;;;7.95;5.32;;;2.50;99.90;;;;;;6190995;23;20051;-87
2023/11/28 03:26:51;;;;;;;7.82;4.97;;;2.50;99.90;;;;;;6166563;23;20490;-86
2023/11/28 03:29:21;;;;;;;9.95;6.10;;;2.50;99.90;;;;;;6166529;23;20024;-85
2023/11/28 03:31:49;;;;;;;7.97;5.32;;;2.50;99.90;;;;;;6165795;23;20059;-86
2023/11/28 03:34:24;;;;;;;8.07;5.30;;;2.50;99.90;;;;;;6166976;23;20020;-86
2023/11/28 03:36:53;;;;;;;11.02;5.88;;;2.50;99.90;;;;;;6165874;23;20346;-85
2023/11/28 03:39:24;;;;;;;8.20;5.18;;;2.40;99.90;;;;;;6190343;23;20035;-86
2023/11/28 03:41:57;;;;;;;6.80;4.35;;;2.40;99.90;;;;;;6165782;23;20390;-85
2023/11/28 03:44:29;;;;;;;8.88;4.63;;;2.30;99.90;;;;;;6143091;23;20021;-85
2023/11/28 03:46:59;;;;;;;7.50;4.43;;;2.30;99.90;;;;;;6165809;23;20020;-86
2023/11/28 03:49:31;;;;;;;7.85;4.70;;;2.20;99.90;;;;;;6166048;23;20100;-86
2023/11/28 03:52:03;;;;;;;7.75;4.13;;;2.10;99.90;;;;;;6165644;23;20051;-86
2023/11/28 03:54:33;;;;;;;7.63;3.75;;;2.10;99.90;;;;;;6190739;23;20024;-93
2023/11/28 03:57:04;;;;;;;7.03;3.03;;;1.90;99.90;;;;;;6167246;23;20452;-93
2023/11/28 03:59:33;;;;;;;;;;;1.80;99.90;;;;;;6168066;23;20024;-92
2023/11/28 04:02:04;;;;;;;4.35;2.15;;;1.70;99.90;;;;;;6192138;23;19915;-91
2023/11/28 04:04:35;;;;;;;5.18;3.10;;;1.60;99.90;;;;;;6144831;23;20320;-93
2023/11/28 04:07:03;;;;;;;4.83;2.10;;;1.50;99.90;;;;;;6167013;23;20043;-91
2023/11/28 04:09:36;;;;;;;4.38;2.03;;;1.40;99.90;;;;;;6192179;23;20020;-93
2023/11/28 04:12:05;;;;;;;4.50;1.95;;;1.40;99.90;;;;;;6166851;23;20067;-86
2023/11/28 04:14:35;;;;;;;5.03;2.27;;;1.30;99.90;;;;;;6166211;23;20024;-86
2023/11/28 04:17:05;;;;;;;3.72;1.63;;;1.20;99.90;;;;;;6165893;23;20021;-86
2023/11/28 04:19:38;;;;;;;3.60;1.47;;;1.20;99.90;;;;;;6190867;23;20031;-86
2023/11/28 04:22:09;;;;;;;3.00;1.50;;;1.10;99.90;;;;;;6172213;23;20016;-86
2023/11/28 04:24:40;;;;;;;5.57;2.27;;;1.10;99.90;;;;;;6215551;23;20017;-92
2023/11/28 04:27:12;;;;;;;4.78;1.50;;;1.10;99.90;;;;;;6181993;23;20017;-92
2023/11/28 04:29:43;;;;;;;3.08;1.17;;;1.00;99.90;;;;;;6187797;23;20027;-92
2023/11/28 04:32:13;;;;;;;4.03;1.55;;;1.00;99.90;;;;;;6166564;23;20004;-92
2023/11/28 04:34:41;;;;;;;3.92;1.48;;;1.00;99.90;;;;;;6169982;23;20020;-92
2023/11/28 04:37:09;;;;;;;2.90;1.00;;;0.90;99.90;;;;;;6167589;23;20355;-92
2023/11/28 04:39:45;;;;;;;4.57;1.60;;;0.90;99.90;;;;;;6168865;23;20103;-92
2023/11/28 04:42:12;;;;;;;3.13;1.00;;;0.90;99.90;;;;;;6169506;23;20024;-93
2023/11/28 04:44:40;;;;;;;2.53;1.10;;;0.90;99.90;;;;;;6168744;23;20016;-93
2023/11/28 04:47:08;;;;;;;2.67;1.33;;;0.80;99.90;;;;;;6167713;23;20104;-93
2023/11/28 04:49:45;;;;;;;2.67;0.93;;;0.80;99.90;;;;;;6169171;23;20016;-87
2023/11/28 04:52:13;;;;;;;2.90;1.10;;;0.80;99.90;;;;;;6161639;23;20100;-86
2023/11/28 04:54:40;;;;;;;2.70;1.17;;;0.80;99.90;;;;;;6135926;23;20024;-86
2023/11/28 04:57:08;;;;;;;3.03;1.00;;;0.80;99.90;;;;;;6136157;23;20373;-86
2023/11/28 04:59:37;;;;;;;2.83;1.00;;;0.70;99.90;;;;;;6136500;23;20032;-86
2023/11/28 05:02:05;;;;;;;2.37;1.00;;;0.70;99.90;;;;;;6135905;23;20028;-86
2023/11/28 05:04:32;;;;;;;3.50;1.40;;;0.70;99.90;;;;;;6135968;23;20021;-87
2023/11/28 05:06:59;;;;;;;2.13;0.93;;;0.80;99.90;;;;;;6136209;23;20027;-86
2023/11/28 05:09:27;;;;;;;2.60;1.07;;;0.80;99.90;;;;;;6135616;23;20013;-87
2023/11/28 05:11:54;;;;;;;2.77;1.30;;;0.80;99.90;;;;;;6135886;23;20391;-86
2023/11/28 05:14:22;;;;;;;3.20;1.50;;;0.70;99.90;;;;;;6135665;23;20052;-86
2023/11/28 05:16:54;;;;;;;2.70;1.30;;;0.70;99.90;;;;;;6136256;23;20024;-86
2023/11/28 05:19:22;;;;;;;3.30;1.17;;;0.70;99.90;;;;;;6135800;23;20076;-86
2023/11/28 05:21:52;;;;;;;3.27;1.33;;;0.70;99.90;;;;;;6135795;23;20017;-85
2023/11/28 05:24:21;;;;;;;3.40;1.40;;;0.70;99.90;;;;;;6136051;23;20044;-86
2023/11/28 05:26:53;;;;;;;3.73;1.60;;;0.70;99.90;;;;;;6136578;23;20017;-86
2023/11/28 05:29:23;;;;;;;4.10;1.67;;;0.80;99.90;;;;;;6136081;23;20013;-86
2023/11/28 05:31:50;;;;;;;3.67;1.23;;;0.80;99.90;;;;;;6135880;23;20031;-92
2023/11/28 05:34:19;;;;;;;3.80;1.53;;;0.80;99.90;;;;;;6138955;23;20021;-95
2023/11/28 05:36:46;;;;;;;3.23;1.40;;;0.80;99.90;;;;;;6138736;23;20024;-93
2023/11/28 05:39:14;;;;;;;4.50;1.60;;;0.80;99.90;;;;;;6162072;23;20359;-91
2023/11/28 05:41:42;;;;;;;3.47;1.73;;;0.90;99.90;;;;;;6113500;23;20041;-92
2023/11/28 05:44:09;;;;;;;3.57;1.33;;;0.80;99.90;;;;;;6162206;23;20025;-92
2023/11/28 05:46:36;;;;;;;4.67;1.97;;;0.90;99.90;;;;;;6161748;23;20025;-92
2023/11/28 05:49:05;;;;;;;3.90;1.47;;;0.90;99.90;;;;;;6138094;23;20035;-91
2023/11/28 06:18:10;;;;;;;4.00;1.57;;;1.30;99.90;;;;;;6203736;22;20320;-87
2023/11/28 06:31:02;;;;;;;4.65;1.90;;;1.30;99.90;;;;;;6247335;22;20024;-91
2023/11/28 06:33:48;;;;;;;3.55;1.55;;;1.20;99.90;;;;;;6197633;23;20046;-91
2023/11/28 06:36:25;;;;;;;3.87;1.50;;;1.30;99.90;;;;;;6197454;23;20024;-91
2023/11/28 06:38:59;;;;;;;4.17;1.60;;;1.20;99.90;;;;;;6196753;23;20020;-91
2023/11/28 06:41:36;;;;;;;3.07;1.20;;;1.30;99.90;;;;;;6197594;23;20020;-91
2023/11/28 06:44:19;;;;;;;2.90;1.13;;;1.30;99.90;;;;;;6201120;23;20452;-91
2023/11/28 06:47:18;;;;;;;2.27;1.03;;;1.30;99.90;;;;;;6229407;23;20100;-91
2023/11/28 06:49:54;;;;;;;1.52;0.70;;;1.40;99.90;;;;;;6198385;23;20027;-91
2023/11/28 06:52:38;;;;;;;2.47;0.90;;;1.30;99.90;;;;;;6198836;23;20024;-87
2023/11/28 06:55:10;;;;;;;2.23;0.83;;;1.40;99.90;;;;;;6223946;23;20020;-86
2023/11/28 06:57:57;;;;;;;3.90;1.00;;;1.40;99.90;;;;;;6198569;23;20107;-87
2023/11/28 07:00:43;;;;;;;2.00;0.80;;;1.30;99.90;;;;;;6183920;23;20091;-87
2023/11/28 07:03:35;;;;;;;3.23;1.00;;;1.40;99.90;;;;;;6160664;23;20078;-86
2023/11/28 07:06:19;;;;;;;2.67;0.97;;;1.40;99.90;;;;;;6197685;23;20043;-86
2023/11/28 07:09:05;;;;;;;2.47;0.93;;;1.40;99.90;;;;;;6175875;23;20016;-86
2023/11/28 07:12:19;;;;;;;1.97;0.97;;;1.50;99.90;;;;;;6226252;23;20438;-88
2023/11/28 07:15:16;;;;;;;2.10;0.80;;;1.50;99.90;;;;;;6227802;23;20080;-87
2023/11/28 07:18:38;;;;;;;3.03;1.40;;;1.60;99.90;;;;;;6083548;23;20033;-87
2023/11/28 07:21:08;;;;;;;2.57;1.07;;;1.60;99.90;;;;;;6072909;23;20026;-87
2023/11/28 07:23:42;;;;;;;2.38;1.00;;;1.60;99.90;;;;;;6076000;23;20114;-87
2023/11/28 07:26:16;;;;;;;3.53;1.10;;;1.60;99.90;;;;;;6049943;23;20047;-87
2023/11/28 07:28:45;;;;;;;2.97;1.10;;;1.70;99.90;;;;;;6021257;23;20047;-87
2023/11/28 07:31:28;;;;;;;2.20;0.83;;;1.70;99.90;;;;;;6021416;23;20030;-87
2023/11/28 07:34:37;;;;;;;1.70;0.80;;;1.70;99.90;;;;;;6067363;23;20027;-88
2023/11/28 07:37:45;;;;;;;2.38;0.70;;;1.80;99.90;;;;;;6190983;23;20076;-89
2023/11/28 07:40:22;;;;;;;1.60;0.70;;;1.80;99.90;;;;;;6168202;23;20051;-89
2023/11/28 07:42:52;;;;;;;2.30;0.90;;;1.80;99.90;;;;;;6167052;23;20096;-87
2023/11/28 07:45:43;;;;;;;2.05;0.70;;;1.80;99.90;;;;;;6171056;23;20013;-87
2023/11/28 07:48:17;;;;;;;1.70;0.60;;;1.80;99.90;;;;;;6169463;23;20039;-87
2023/11/28 07:50:45;;;;;;;2.33;0.52;;;1.80;99.90;;;;;;6167122;23;20016;-87
2023/11/28 07:53:12;;;;;;;1.67;0.60;;;1.80;99.90;;;;;;6167817;23;20024;-87
2023/11/28 07:55:40;;;;;;;1.77;0.73;;;1.90;99.90;;;;;;6168730;23;20017;-87
2023/11/28 07:58:13;;;;;;;1.98;0.90;;;1.90;99.90;;;;;;6169959;23;20327;-88
2023/11/28 08:00:40;;;;;;;2.25;0.77;;;1.90;99.90;;;;;;6167474;23;20115;-87
2023/11/28 08:03:10;;;;;;;3.03;0.63;;;1.90;99.90;;;;;;6166825;23;20100;-88
2023/11/28 08:05:37;;;;;;;1.73;0.63;;;1.90;99.90;;;;;;6166157;23;20099;-86
2023/11/28 08:08:05;;;;;;;1.83;0.70;;;2.00;99.90;;;;;;6166436;23;20017;-86
2023/11/28 08:10:35;;;;;;;1.60;0.68;;;2.00;99.90;;;;;;6141668;23;20020;-86
2023/11/28 08:13:05;;;;;;;2.15;0.70;;;2.00;99.90;;;;;;6166163;23;20382;-85
2023/11/28 08:15:35;;;;;;;1.65;0.60;;;2.00;99.90;;;;;;6166387;23;20025;-85
2023/11/28 08:18:05;;;;;;;1.13;0.67;;;2.00;99.90;;;;;;6142279;23;20020;-85
2023/11/28 08:20:32;;;;;;;1.03;0.47;;;2.00;99.90;;;;;;6141390;23;20056;-86
2023/11/28 08:23:02;;;;;;;1.07;0.37;;;2.00;99.90;;;;;;6165667;23;20024;-86
2023/11/28 08:25:29;;;;;;;1.70;0.50;;;2.10;99.90;;;;;;6166088;23;20024;-86
2023/11/28 08:27:57;;;;;;;2.17;0.43;;;2.10;99.90;;;;;;6117233;23;20047;-86
2023/11/28 08:30:24;;;;;;;1.63;0.50;;;2.10;99.90;;;;;;6140866;23;20439;-86
2023/11/28 08:32:51;;;;;;;1.20;0.50;;;2.10;99.90;;;;;;6165659;23;20024;-85
2023/11/28 08:35:19;;;;;;;0.77;0.40;;;2.10;99.90;;;;;;6165894;23;20021;-86
2023/11/28 08:37:47;;;;;;;2.40;0.50;;;2.00;99.90;;;;;;6165747;23;20398;-86
2023/11/28 08:40:17;;;;;;;1.20;0.50;;;2.00;99.90;;;;;;6165875;23;20028;-86
2023/11/28 08:42:45;;;;;;;1.17;0.40;;;1.90;99.90;;;;;;6165613;23;20020;-85
2023/11/28 08:45:14;;;;;;;0.93;0.30;;;1.80;99.90;;;;;;6165522;23;20027;-86
2023/11/28 08:47:42;;;;;;;1.03;0.43;;;1.70;99.90;;;;;;6166324;23;20027;-85
2023/11/28 08:50:12;;;;;;;1.40;1.00;;;1.70;99.90;;;;;;6166872;23;20013;-85
2023/11/28 08:52:40;;;;;;;1.53;0.50;;;1.70;99.90;;;;;;6166829;23;20025;-85
2023/11/28 08:55:07;;;;;;;0.95;0.30;;;1.70;99.90;;;;;;6166685;23;20327;-86
2023/11/28 08:57:38;;;;;;;1.23;0.43;;;1.70;99.90;;;;;;6166707;23;20028;-85
2023/11/28 09:00:06;;;;;;;2.30;0.70;;;1.60;99.90;;;;;;6166366;23;20020;-85
2023/11/28 09:02:34;;;;;;;0.97;0.40;;;1.70;99.90;;;;;;6165658;23;20021;-86
2023/11/28 09:05:01;;;;;;;1.20;0.50;;;1.70;99.90;;;;;;6165051;23;20468;-90
2023/11/28 09:07:28;;;;;;;1.38;0.40;;;1.70;99.90;;;;;;6165563;23;20021;-85
2023/11/28 09:09:56;;;;;;;2.10;0.50;;;1.70;99.90;;;;;;6165721;23;20335;-86
2023/11/28 09:12:24;;;;;;;1.70;0.80;;;1.70;99.90;;;;;;6189692;23;20021;-84
2023/11/28 09:14:51;;;;;;;1.20;0.50;;;1.70;99.90;;;;;;6164877;23;20028;-85
2023/11/28 09:17:22;;;;;;;1.02;0.50;;;1.70;99.90;;;;;;6165984;23;20346;-84
2023/11/28 09:19:50;;;;;;;1.73;0.60;;;1.70;99.90;;;;;;6165729;23;20490;-84
2023/11/28 09:22:17;;;;;;;1.40;0.50;;;1.80;99.90;;;;;;6165232;23;20013;-86
2023/11/28 09:24:45;;;;;;;1.20;0.50;;;1.80;99.90;;;;;;6165112;23;20039;-85
2023/11/28 09:27:15;;;;;;;2.00;0.70;;;1.70;99.90;;;;;;6165183;23;20040;-86
2023/11/28 09:29:45;;;;;;;1.45;0.60;;;1.70;99.90;;;;;;6159842;23;20049;-88
2023/11/28 09:32:16;;;;;;;1.35;0.55;;;1.80;99.90;;;;;;6162528;23;20071;-85
2023/11/28 09:34:45;;;;;;;1.42;0.55;;;1.80;99.90;;;;;;6165337;23;20023;-85
2023/11/28 09:37:12;;;;;;;1.83;0.63;;;1.80;99.90;;;;;;6165318;23;20104;-85
2023/11/28 09:39:40;;;;;;;1.58;0.57;;;1.80;99.90;;;;;;6165742;23;20025;-85
2023/11/28 09:42:12;;;;;;;1.50;0.45;;;1.80;99.90;;;;;;6167300;23;20009;-84
2023/11/28 09:44:45;;;;;;;0.90;0.40;;;1.80;99.90;;;;;;6166201;23;20020;-85
2023/11/28 09:47:17;;;;;;;2.15;0.60;;;1.80;99.90;;;;;;6165786;23;20020;-84
2023/11/28 09:49:51;;;;;;;1.95;0.60;;;1.80;99.90;;;;;;6189319;23;20024;-85
2023/11/28 09:52:20;;;;;;;0.90;0.40;;;1.80;99.90;;;;;;6189212;23;20029;-84
2023/11/28 09:55:01;;;;;;;1.05;0.43;;;1.80;99.90;;;;;;6189404;23;20358;-87
2023/11/28 09:58:10;;;;;;;1.95;0.70;;;1.90;99.90;;;;;;6165338;23;20038;-85
2023/11/28 10:00:52;;;;;;;1.08;0.60;;;1.90;99.90;;;;;;6165232;23;20030;-85
2023/11/28 10:03:24;;;;;;;3.42;0.60;;;1.90;99.90;;;;;;6142787;23;20059;-84
2023/11/28 10:05:59;;;;;;;2.40;0.70;;;2.00;99.90;;;;;;6165068;23;20023;-85
2023/11/28 10:09:00;;;;;;;1.35;0.40;;;2.00;99.90;;;;;;6171838;23;20020;-89
2023/11/28 10:11:36;;;;;;;1.73;0.73;;;2.00;99.90;;;;;;6166168;23;20021;-87
2023/11/28 10:14:24;;;;;;;2.05;0.85;;;2.00;99.90;;;;;;6166799;23;20453;-87
2023/11/28 10:16:53;;;;;;;0.90;0.40;;;2.00;99.90;;;;;;6168815;23;20020;-87
2023/11/28 10:19:26;;;;;;;1.77;0.63;;;2.00;99.90;;;;;;6194165;23;20087;-90
2023/11/28 10:22:06;;;;;;;2.27;0.60;;;2.00;99.90;;;;;;6149288;23;20024;-90
2023/11/28 10:24:43;;;;;;;3.13;0.75;;;2.00;99.90;;;;;;6170794;23;20027;-89
2023/11/28 10:27:46;;;;;;;2.15;0.80;;;2.00;99.90;;;;;;6168089;23;20016;-92
2023/11/28 10:33:38;;;;;;;3.13;0.90;;;2.10;99.90;;;;;;6193440;23;20446;-92
2023/11/28 10:36:27;;;;;;;2.13;0.70;;;2.10;99.90;;;;;;6099599;23;20026;-93
2023/11/28 10:43:42;;;;;;;;;;;;;;;;;;;;;
2023/11/28 10:51:01;;;;;;;1.93;0.50;;;2.10;99.90;;;;;;6065889;23;20054;-85
2023/11/28 10:53:46;;;;;;;1.73;0.50;;;2.10;99.90;;;;;;6070146;23;20409;-85
2023/11/28 10:56:17;;;;;;;1.60;0.70;;;2.20;99.90;;;;;;6073991;23;20022;-87
2023/11/28 11:00:07;;;;;;;2.70;1.02;;;2.20;99.90;;;;;;6052076;23;20081;-91
2023/11/28 11:03:17;;;;;;;1.40;0.60;;;2.30;99.90;;;;;;6073797;23;20014;-89
2023/11/28 11:05:54;;;;;;;2.10;1.00;;;2.40;99.90;;;;;;6168255;23;20020;-90
2023/11/28 11:08:30;;;;;;;2.30;0.80;;;2.40;99.90;;;;;;6167759;23;20020;-91
2023/11/28 11:11:04;;;;;;;2.58;0.80;;;2.50;99.90;;;;;;6168502;23;20016;-86
2023/11/28 11:14:27;;;;;;;1.17;0.40;;;2.60;99.90;;;;;;6192217;23;20537;-89
2023/11/28 11:17:12;;;;;;;1.58;0.68;;;2.70;99.90;;;;;;6090927;23;20032;-88
2023/11/28 11:19:42;;;;;;;1.90;0.70;;;2.80;99.90;;;;;;6168858;23;20025;-86
2023/11/28 11:22:21;;;;;;;1.83;1.00;;;2.90;99.90;;;;;;6170916;23;20031;-84
2023/11/28 11:24:48;;;;;;;1.80;0.70;;;3.00;99.90;;;;;;6168364;23;20043;-85
2023/11/28 11:27:22;;;;;;;1.83;0.70;;;3.00;99.90;;;;;;6154345;23;20075;-84
2023/11/28 11:29:49;;;;;;;1.77;0.82;;;3.10;99.90;;;;;;6167915;23;20039;-85
2023/11/28 11:32:18;;;;;;;1.00;0.45;;;3.20;99.90;;;;;;6191832;23;20036;-87
2023/11/28 11:34:48;;;;;;;1.75;0.60;;;3.30;99.90;;;;;;6191705;23;20023;-88
2023/11/28 11:37:40;;;;;;;;;;;3.50;99.80;;;;;;6168732;23;20012;-91
2023/11/28 11:40:19;;;;;;;1.23;0.47;;;3.60;99.70;;;;;;6192663;23;19916;-92
2023/11/28 11:43:10;;;;;;;1.98;0.45;;;3.60;99.60;;;;;;6167263;23;20073;-92
2023/11/28 11:46:15;;;;;;;1.85;0.57;;;3.70;99.40;;;;;;6198648;23;20091;-91
2023/11/28 11:52:49;;;;;;;2.10;0.70;;;3.70;99.10;;;;;;6198104;23;20096;-92
2023/11/28 11:56:03;;;;;;;0.95;0.40;;;3.60;99.20;;;;;;6192225;23;20017;-92
2023/11/28 11:58:34;;;;;;;1.52;0.70;;;3.60;99.30;;;;;;6156576;23;20031;-94
2023/11/28 12:01:03;;;;;;;1.08;0.40;;;3.60;99.40;;;;;;6191949;23;20466;-93
2023/11/28 12:03:37;;;;;;;0.82;0.30;;;3.60;99.40;;;;;;6168513;23;20382;-94
2023/11/28 12:11:09;;;;;;;1.10;0.43;;;3.90;99.10;;;;;;6218446;23;20028;-89
2023/11/28 12:13:39;;;;;;;1.58;0.43;;;3.90;99.00;;;;;;6191158;23;20028;-89
2023/11/28 12:16:16;;;;;;;1.08;0.50;;;3.90;98.80;;;;;;6192979;23;20108;-88
2023/11/28 12:19:17;;;;;;;1.75;0.50;;;4.00;98.90;;;;;;6172837;23;20112;-88
2023/11/28 12:21:59;;;;;;;1.73;0.30;;;4.00;98.80;;;;;;6194096;23;20092;-89
2023/11/28 12:24:32;;;;;;;1.48;0.45;;;4.10;98.80;;;;;;6190992;23;20020;-88
2023/11/28 12:27:09;;;;;;;1.55;0.50;;;4.10;98.70;;;;;;6190037;23;20017;-85
2023/11/28 12:29:59;;;;;;;1.88;0.65;;;4.10;98.60;;;;;;6165896;23;20017;-90
2023/11/28 12:32:57;;;;;;;2.75;0.90;;;4.20;98.30;;;;;;6198536;23;20498;-88
2023/11/28 12:36:29;;;;;;;3.20;1.20;;;4.10;98.20;;;;;;6192561;23;20029;-91
2023/11/28 12:39:42;;;;;;;1.33;0.50;;;4.20;98.00;;;;;;6079366;23;20097;-89
2023/11/28 12:43:29;;;;;;;1.52;0.50;;;4.20;98.10;;;;;;6051426;23;20026;-92
2023/11/28 12:46:11;;;;;;;1.52;0.60;;;4.20;98.10;;;;;;6152865;23;20023;-90
2023/11/28 12:48:50;;;;;;;1.70;0.90;;;4.20;98.20;;;;;;6193695;23;20398;-85
2023/11/28 12:51:17;;;;;;;1.90;0.70;;;4.20;98.20;;;;;;6190853;23;20017;-84
2023/11/28 12:53:45;;;;;;;3.33;1.00;;;4.20;98.10;;;;;;6191077;23;20107;-84
2023/11/28 12:56:13;;;;;;;2.22;0.80;;;4.20;98.00;;;;;;6191719;23;20017;-85
2023/11/28 12:58:40;;;;;;;3.47;1.10;;;4.20;98.00;;;;;;6190861;23;20138;-86
2023/11/28 13:01:20;;;;;;;;;;;;;;;;;;;;;
2023/11/28 13:13:25;;;;;;;2.28;0.80;;;4.20;97.40;;;;;;6096485;23;20025;-91
2023/11/28 13:17:01;;;;;;;;;;;;;;;;;;;;;
2023/11/28 13:20:20;;;;;;;2.35;1.10;;;4.10;97.50;;;;;;6097451;23;20112;-85
2023/11/28 13:22:50;;;;;;;1.77;0.75;;;4.00;97.60;;;;;;6130692;23;20064;-88
2023/11/28 13:25:52;;;;;;;;;;;;;;;;;;;;;
2023/11/28 13:28:59;;;;;;;1.98;0.68;;;3.90;97.70;;;;;;6199893;23;20514;-92
2023/11/28 13:32:20;;;;;;;2.78;0.88;;;3.80;97.90;;;;;;6191028;23;20351;-92
2023/11/28 13:34:46;;;;;;;1.73;0.52;;;3.70;98.10;;;;;;6215192;23;20028;-90
2023/11/28 13:37:30;;;;;;;2.72;0.60;;;3.50;98.10;;;;;;6191127;23;20446;-94
2023/11/28 13:40:11;;;;;;;1.67;0.47;;;3.50;98.10;;;;;;6190176;23;20025;-89
2023/11/28 13:42:58;;;;;;;2.00;0.50;;;3.40;98.20;;;;;;6190801;23;20063;-91
2023/11/28 13:45:36;;;;;;;1.10;0.40;;;3.40;98.30;;;;;;6167221;23;20095;-89
2023/11/28 13:48:28;;;;;;;1.45;0.30;;;3.30;98.40;;;;;;6190900;23;20036;-92
2023/11/28 13:51:38;;;;;;;0.98;0.40;;;3.30;98.40;;;;;;6196994;23;20031;-92
2023/11/28 13:54:46;;;;;;;1.08;0.50;;;3.30;98.50;;;;;;6107346;23;20033;-94
2023/11/28 14:02:21;;;;;;;;;;;;;;;;;;;;;
2023/11/28 14:08:57;;;;;;;1.52;0.50;;;3.30;98.30;;;;;;5999112;23;20106;-87
2023/11/28 14:11:24;;;;;;;3.88;0.98;;;3.40;98.20;;;;;;6051090;23;20079;-85
2023/11/28 14:14:46;;;;;;;2.60;0.80;;;3.40;98.10;;;;;;6105978;23;20022;-90
2023/11/28 14:18:19;;;;;;;2.05;0.90;;;3.40;97.90;;;;;;6000776;23;20027;-93
2023/11/28 14:25:16;;;;;;;4.15;1.35;;;3.30;97.90;;;;;;6154263;23;20095;-87
2023/11/28 14:27:46;;;;;;;2.22;0.85;;;3.20;97.80;;;;;;6136501;23;20025;-88
2023/11/28 14:31:02;;;;;;;3.38;1.20;;;3.20;97.80;;;;;;6134244;23;20021;-90
2023/11/28 14:33:54;;;;;;;2.35;0.70;;;3.20;97.70;;;;;;6135043;23;20021;-92
2023/11/28 14:36:28;;;;;;;2.78;0.90;;;3.10;97.80;;;;;;6136237;23;20025;-87
2023/11/28 14:38:55;;;;;;;1.92;0.93;;;3.10;98.00;;;;;;6164266;23;20017;-89
2023/11/28 14:41:30;;;;;;;3.42;0.75;;;3.00;98.00;;;;;;6191952;23;20024;-85
2023/11/28 14:43:57;;;;;;;3.28;1.02;;;3.00;98.10;;;;;;6167489;23;20033;-84
2023/11/28 14:46:24;;;;;;;2.17;0.70;;;3.00;98.10;;;;;;6144048;23;20024;-82
2023/11/28 14:48:58;;;;;;;1.80;0.68;;;3.00;98.10;;;;;;6167930;23;20015;-87
2023/11/28 14:51:27;;;;;;;2.60;0.70;;;3.00;98.10;;;;;;6142945;23;20020;-90
2023/11/28 14:53:55;;;;;;;2.22;0.90;;;2.90;98.10;;;;;;6189763;23;20025;-87
2023/11/28 14:56:23;;;;;;;2.65;0.80;;;2.90;98.10;;;;;;6165561;23;20055;-88
2023/11/28 14:58:50;;;;;;;1.95;0.70;;;2.90;98.10;;;;;;6165062;23;20025;-84
2023/11/28 15:01:19;;;;;;;4.28;1.30;;;2.80;98.40;;;;;;6165383;23;20059;-88
2023/11/28 15:03:46;;;;;;;1.58;0.73;;;2.80;98.20;;;;;;6191682;23;20016;-87
2023/11/28 15:06:19;;;;;;;2.28;0.73;;;2.80;98.30;;;;;;6142843;23;20013;-92
2023/11/28 15:09:17;;;;;;;1.70;0.60;;;2.70;98.40;;;;;;6191546;23;20044;-92
2023/11/28 15:12:15;;;;;;;0.90;0.40;;;2.70;98.50;;;;;;6171856;23;20397;-91
2023/11/28 15:14:49;;;;;;;1.65;1.00;;;2.70;98.50;;;;;;6168536;23;20016;-85
2023/11/28 15:17:16;;;;;;;1.10;0.57;;;2.60;98.50;;;;;;6166284;23;20070;-85
2023/11/28 15:19:44;;;;;;;1.88;0.55;;;2.60;98.50;;;;;;6190628;23;20450;-85